aviador You're here:

YBHM Decoded Metar

HAMILTON ISLAND in AUSTRALIA
Report Time2018-05-20 19:30:00
UTC Time2018-05-20 19:44:12
Flight Rules vfr VFR
Wind160° at 21 kt
W.Decomp.*RWY 14: 20.5 kt HW 4.4 kt RCW
W.Rank160° ranks 7
Current wind is above 160° avg. (14.1)
Visibility9999 m
Phenomena:N/A
Clouds:N/A
Expected CloudBase > 1,600 ft AGL from Temp-Dew spread
CeilingNone
Temp21°C (ISA +6)
Dew Point17°C (78% RH)
AAT15.8°C
QNH1018 hPa
Density Alt810 ft
Elevation16 ft
Report Wrong Elevation
Raw Report
METAR YBHM 201930Z AUTO 16021KT 9999 // NCD 21/17 Q1018=

Extra information for YBHM:More info

Metar Taf Metar & Taf Last 4 Metars F.Rules Stats Wind Profile Meteogram Temp Stats Airport Information Weather charts Add Link Nearby VenuesMetar ALERT Operation Metar Decoded Social comments